createdAt,value
2022-08-28T00:00:15.922Z,21.86
2022-08-28T00:02:43.279Z,21.95
2022-08-28T00:05:11.561Z,21.89
2022-08-28T00:07:43.229Z,21.95
2022-08-28T00:10:12.420Z,22.07
2022-08-28T00:12:39.803Z,22.00
2022-08-28T00:15:13.069Z,21.57
2022-08-28T00:17:40.321Z,21.86
2022-08-28T00:20:10.236Z,21.89
2022-08-28T00:22:38.407Z,21.61
2022-08-28T00:25:07.430Z,21.84
2022-08-28T00:27:52.670Z,21.66
2022-08-28T00:30:28.398Z,21.79
2022-08-28T00:32:58.668Z,21.71
2022-08-28T00:35:25.800Z,21.82
2022-08-28T00:37:53.023Z,21.69
2022-08-28T00:40:28.583Z,21.84
2022-08-28T00:42:57.737Z,22.09
2022-08-28T00:45:24.823Z,22.04
2022-08-28T00:47:51.578Z,21.80
2022-08-28T00:50:22.643Z,21.48
2022-08-28T00:52:52.019Z,21.41
2022-08-28T00:55:22.430Z,21.59
2022-08-28T00:57:58.983Z,21.58
2022-08-28T01:00:33.804Z,21.61
2022-08-28T01:03:01.946Z,21.46
2022-08-28T01:05:29.924Z,21.64
2022-08-28T01:07:58.867Z,21.46
2022-08-28T01:10:28.196Z,21.56
2022-08-28T01:12:56.274Z,21.36
2022-08-28T01:15:28.385Z,21.73
2022-08-28T01:18:03.535Z,21.93
2022-08-28T01:20:35.702Z,22.09
2022-08-28T01:23:02.242Z,21.88
2022-08-28T01:25:33.843Z,21.79
2022-08-28T01:28:04.337Z,21.87
2022-08-28T01:30:32.389Z,21.93
2022-08-28T01:32:59.381Z,21.61
2022-08-28T01:35:31.554Z,21.49
2022-08-28T01:37:58.448Z,21.69
2022-08-28T01:40:36.196Z,21.88
2022-08-28T01:43:21.722Z,21.66
2022-08-28T01:45:52.847Z,21.67
2022-08-28T01:48:20.915Z,21.71
2022-08-28T01:50:48.169Z,21.70
2022-08-28T01:53:16.937Z,21.97
2022-08-28T01:55:44.270Z,21.53
2022-08-28T01:58:12.634Z,21.34
2022-08-28T02:00:40.080Z,21.57
2022-08-28T02:03:07.179Z,21.48
2022-08-28T02:05:34.615Z,21.80
2022-08-28T02:08:02.804Z,21.79
2022-08-28T02:10:31.459Z,21.67
2022-08-28T02:12:59.163Z,21.44
2022-08-28T02:15:27.988Z,21.59
2022-08-28T02:17:56.111Z,21.68
2022-08-28T02:20:24.354Z,21.60
2022-08-28T02:22:51.900Z,21.62
2022-08-28T02:25:19.251Z,21.62
2022-08-28T02:27:46.150Z,21.65
2022-08-28T02:30:15.373Z,21.80
2022-08-28T02:32:42.018Z,21.66
2022-08-28T02:35:14.207Z,21.49
2022-08-28T02:37:44.210Z,21.50
2022-08-28T02:40:16.445Z,21.54
2022-08-28T02:42:43.630Z,21.50
2022-08-28T02:45:12.310Z,21.74
2022-08-28T02:47:40.003Z,21.62
2022-08-28T02:50:08.450Z,21.46
2022-08-28T02:52:37.386Z,21.79
2022-08-28T02:55:06.026Z,21.71
2022-08-28T02:57:32.811Z,21.88
2022-08-28T02:59:59.839Z,21.59
2022-08-28T03:02:27.087Z,21.58
2022-08-28T03:04:55.435Z,21.70
2022-08-28T03:07:22.711Z,21.49
2022-08-28T03:09:50.552Z,21.38
2022-08-28T03:12:17.244Z,21.35
2022-08-28T03:14:43.898Z,21.39
2022-08-28T03:17:10.611Z,21.31
2022-08-28T03:19:37.351Z,21.41
2022-08-28T03:22:04.099Z,21.58
2022-08-28T03:24:30.811Z,21.66
2022-08-28T03:26:58.262Z,21.73
2022-08-28T03:29:24.870Z,21.66
2022-08-28T03:31:51.663Z,21.44
2022-08-28T03:34:18.431Z,21.64
2022-08-28T03:36:45.123Z,21.86
2022-08-28T03:39:11.951Z,21.58
2022-08-28T03:41:38.592Z,21.57
2022-08-28T03:44:05.292Z,21.54
2022-08-28T03:46:33.604Z,21.56
2022-08-28T03:49:02.521Z,21.55
2022-08-28T03:51:31.942Z,21.39
2022-08-28T03:53:59.871Z,21.21
2022-08-28T03:56:28.665Z,21.27
2022-08-28T03:58:58.287Z,21.21
2022-08-28T04:01:25.277Z,21.43
2022-08-28T04:03:51.898Z,21.26
2022-08-28T04:06:19.829Z,21.25
2022-08-28T04:08:47.912Z,21.48
2022-08-28T04:11:14.801Z,21.47
2022-08-28T04:13:42.106Z,21.57
2022-08-28T04:16:12.233Z,21.56
2022-08-28T04:18:41.389Z,21.53
2022-08-28T04:21:19.689Z,21.25
2022-08-28T04:23:47.275Z,21.67
2022-08-28T04:26:17.231Z,21.72
2022-08-28T04:28:44.946Z,21.61
2022-08-28T04:31:11.899Z,21.61
2022-08-28T04:33:38.843Z,21.72
2022-08-28T04:36:08.753Z,21.71
2022-08-28T04:38:36.819Z,21.77
2022-08-28T04:41:07.602Z,21.62
2022-08-28T04:43:34.821Z,21.43
2022-08-28T04:46:10.084Z,21.24
2022-08-28T04:48:37.198Z,21.23
2022-08-28T04:51:09.335Z,21.48
2022-08-28T04:53:38.511Z,21.38
2022-08-28T04:56:08.032Z,21.30
2022-08-28T04:58:35.219Z,21.30
2022-08-28T05:01:12.766Z,21.44
2022-08-28T05:03:40.052Z,21.44
2022-08-28T05:06:07.435Z,21.31
2022-08-28T05:08:34.591Z,21.41
2022-08-28T05:11:33.867Z,21.23
2022-08-28T05:14:07.441Z,21.62
2022-08-28T05:16:39.885Z,21.38
2022-08-28T05:19:06.541Z,21.42
2022-08-28T05:21:33.162Z,21.34
2022-08-28T05:24:00.090Z,21.10
2022-08-28T05:26:28.447Z,21.48
2022-08-28T05:28:58.390Z,21.44
2022-08-28T05:31:26.596Z,21.54
2022-08-28T05:33:53.688Z,21.41
2022-08-28T05:36:22.879Z,21.27
2022-08-28T05:38:51.360Z,21.32
2022-08-28T05:41:26.480Z,21.49
2022-08-28T05:43:54.073Z,21.36
2022-08-28T05:46:21.349Z,21.39
2022-08-28T05:48:49.347Z,21.40
2022-08-28T05:51:20.220Z,21.44
2022-08-28T05:53:49.970Z,21.13
2022-08-28T05:56:24.253Z,21.32
2022-08-28T05:58:51.085Z,21.31
2022-08-28T06:01:23.565Z,21.41
2022-08-28T06:03:58.737Z,21.17
2022-08-28T06:06:27.543Z,21.37
2022-08-28T06:08:59.455Z,21.30
2022-08-28T06:11:30.996Z,21.30
2022-08-28T06:14:02.759Z,21.40
2022-08-28T06:16:31.665Z,21.42
2022-08-28T06:19:00.609Z,21.44
2022-08-28T06:21:27.992Z,21.24
2022-08-28T06:23:55.118Z,21.21
2022-08-28T06:26:22.112Z,21.26
2022-08-28T06:31:24.436Z,21.31
2022-08-28T06:33:54.154Z,21.35
2022-08-28T06:36:21.132Z,21.49
2022-08-28T06:38:47.724Z,21.37
2022-08-28T06:41:18.360Z,21.40
2022-08-28T06:43:44.976Z,21.49
2022-08-28T06:46:11.639Z,21.21
2022-08-28T06:48:38.302Z,21.34
2022-08-28T06:51:09.441Z,21.16
2022-08-28T06:53:38.189Z,21.43
2022-08-28T06:56:18.450Z,21.12
2022-08-28T06:58:56.015Z,20.79
2022-08-28T07:01:32.942Z,20.96
2022-08-28T07:04:03.945Z,21.04
2022-08-28T07:06:34.271Z,20.90
2022-08-28T07:09:01.334Z,21.19
2022-08-28T07:11:31.352Z,20.84
2022-08-28T07:13:58.581Z,20.96
2022-08-28T07:16:29.351Z,20.84
2022-08-28T07:18:56.198Z,21.17
2022-08-28T07:21:23.144Z,20.79
2022-08-28T07:23:50.239Z,21.02
2022-08-28T07:26:20.269Z,21.39
2022-08-28T07:28:47.419Z,21.25
2022-08-28T07:31:17.708Z,21.10
2022-08-28T07:33:45.163Z,20.78
2022-08-28T07:36:29.915Z,21.23
2022-08-28T07:38:59.161Z,21.18
2022-08-28T07:41:28.791Z,21.00
2022-08-28T07:44:15.006Z,20.86
2022-08-28T07:46:41.773Z,20.96
2022-08-28T07:49:08.812Z,20.81
2022-08-28T07:51:35.916Z,20.85
2022-08-28T07:54:04.044Z,20.75
2022-08-28T07:56:31.187Z,20.81
2022-08-28T07:58:59.058Z,20.91
2022-08-28T08:01:28.883Z,20.79
2022-08-28T08:04:01.592Z,20.92
2022-08-28T08:06:34.136Z,20.59
2022-08-28T08:09:02.341Z,20.71
2022-08-28T08:11:32.218Z,20.75
2022-08-28T08:14:05.611Z,20.80
2022-08-28T08:16:35.605Z,20.68
2022-08-28T08:19:02.736Z,21.02
2022-08-28T08:21:30.490Z,21.08
2022-08-28T08:23:58.474Z,21.12
2022-08-28T08:26:28.169Z,21.24
2022-08-28T08:28:55.698Z,21.15
2022-08-28T08:31:28.405Z,21.27
2022-08-28T08:33:57.483Z,21.08
2022-08-28T08:36:26.072Z,21.04
2022-08-28T08:39:00.060Z,20.98
2022-08-28T08:41:48.286Z,21.07
2022-08-28T08:44:21.531Z,21.29
2022-08-28T08:47:00.131Z,21.16
2022-08-28T08:52:20.584Z,20.97
2022-08-28T08:55:01.634Z,21.10
2022-08-28T08:57:30.788Z,21.37
2022-08-28T08:59:57.803Z,21.43
2022-08-28T09:02:31.671Z,21.55
2022-08-28T09:05:09.338Z,21.50
2022-08-28T09:07:41.997Z,21.31
2022-08-28T09:10:12.467Z,21.36
2022-08-28T09:13:17.107Z,21.52
2022-08-28T09:15:50.073Z,21.74
2022-08-28T09:18:31.932Z,21.91
2022-08-28T09:21:00.319Z,21.90
2022-08-28T09:23:29.931Z,21.78
2022-08-28T09:26:01.650Z,21.63
2022-08-28T09:28:35.722Z,21.59
2022-08-28T09:31:05.303Z,21.66
2022-08-28T09:33:41.608Z,22.05
2022-08-28T09:36:42.762Z,21.98
2022-08-28T09:39:18.348Z,21.88
2022-08-28T09:42:30.513Z,21.81
2022-08-28T09:45:13.809Z,21.69
2022-08-28T09:47:58.594Z,22.25
2022-08-28T09:50:27.753Z,22.13
2022-08-28T09:52:57.742Z,22.12
2022-08-28T09:55:35.988Z,22.24
2022-08-28T09:58:04.047Z,22.34
2022-08-28T10:00:35.902Z,22.45
2022-08-28T10:03:41.523Z,22.46
2022-08-28T10:06:37.843Z,22.52
2022-08-28T10:09:19.188Z,22.40
2022-08-28T10:12:11.206Z,22.88
2022-08-28T10:15:04.030Z,22.84
2022-08-28T10:18:06.710Z,22.80
2022-08-28T10:20:54.334Z,22.30
2022-08-28T10:23:27.466Z,22.48
2022-08-28T10:26:16.063Z,22.48
2022-08-28T10:28:56.790Z,22.72
2022-08-28T10:31:42.998Z,23.07
2022-08-28T10:34:36.966Z,23.07
2022-08-28T10:37:14.267Z,23.13
2022-08-28T10:40:00.584Z,23.10
2022-08-28T10:42:38.936Z,23.47
2022-08-28T10:45:12.465Z,23.23
2022-08-28T10:47:41.950Z,23.14
2022-08-28T10:50:16.407Z,23.35
2022-08-28T10:52:47.981Z,23.26
2022-08-28T10:55:23.467Z,23.27
2022-08-28T10:58:24.478Z,23.69
2022-08-28T11:01:01.194Z,23.42
2022-08-28T11:03:35.542Z,23.39
2022-08-28T11:06:12.952Z,23.71
2022-08-28T11:08:40.211Z,23.44
2022-08-28T11:11:13.371Z,23.60
2022-08-28T11:13:43.303Z,23.39
2022-08-28T11:16:21.204Z,23.38
2022-08-28T11:19:15.534Z,23.59
2022-08-28T11:21:52.699Z,23.86
2022-08-28T11:24:33.414Z,23.54
2022-08-28T11:27:20.035Z,23.66
2022-08-28T11:30:01.400Z,23.58
2022-08-28T11:32:30.894Z,24.23
2022-08-28T11:35:29.548Z,23.88
2022-08-28T11:37:57.800Z,24.02
2022-08-28T11:40:27.339Z,23.72
2022-08-28T11:43:17.369Z,23.78
2022-08-28T11:45:47.409Z,23.85
2022-08-28T11:48:36.294Z,24.00
2022-08-28T11:51:18.129Z,24.33
2022-08-28T11:53:52.232Z,24.06
2022-08-28T11:56:31.966Z,24.14
2022-08-28T11:59:35.500Z,23.91
2022-08-28T12:02:39.435Z,24.24
2022-08-28T12:05:32.465Z,24.41
2022-08-28T12:08:02.457Z,24.32
2022-08-28T12:10:30.620Z,24.04
2022-08-28T12:13:00.178Z,24.42
2022-08-28T12:15:29.793Z,24.32
2022-08-28T12:18:03.990Z,24.04
2022-08-28T12:20:33.791Z,24.45
2022-08-28T12:23:23.441Z,24.09
2022-08-28T12:25:58.759Z,24.32
2022-08-28T12:28:29.321Z,24.21
2022-08-28T12:31:05.130Z,24.38
2022-08-28T12:33:41.766Z,24.34
2022-08-28T12:36:15.801Z,24.67
2022-08-28T12:38:51.194Z,24.72
2022-08-28T12:41:18.747Z,24.85
2022-08-28T12:43:50.597Z,24.62
2022-08-28T12:46:24.548Z,24.69
2022-08-28T12:48:53.068Z,24.74
2022-08-28T12:51:25.524Z,24.89
2022-08-28T12:53:55.560Z,24.81
2022-08-28T12:56:25.451Z,24.74
2022-08-28T12:58:52.421Z,24.67
2022-08-28T13:01:25.218Z,24.92
2022-08-28T13:03:59.005Z,24.84
2022-08-28T13:06:32.713Z,25.02
2022-08-28T13:09:06.768Z,24.75
2022-08-28T13:11:49.185Z,24.73
2022-08-28T13:14:43.666Z,24.90
2022-08-28T13:17:12.513Z,24.90
2022-08-28T13:19:40.070Z,24.79
2022-08-28T13:22:29.001Z,24.48
2022-08-28T13:25:00.658Z,24.85
2022-08-28T13:27:28.175Z,24.67
2022-08-28T13:30:00.799Z,24.80
2022-08-28T13:32:29.195Z,25.34
2022-08-28T13:35:10.707Z,24.74
2022-08-28T13:38:00.068Z,25.00
2022-08-28T13:43:22.338Z,25.16
2022-08-28T13:45:49.786Z,25.21
2022-08-28T13:48:19.608Z,24.69
2022-08-28T13:50:49.670Z,24.97
2022-08-28T13:53:20.043Z,24.53
2022-08-28T13:55:49.171Z,25.08
2022-08-28T13:58:16.175Z,24.98
2022-08-28T14:00:48.373Z,24.94
2022-08-28T14:03:34.326Z,25.33
2022-08-28T14:06:02.627Z,25.22
2022-08-28T14:08:29.728Z,25.07
2022-08-28T14:10:56.599Z,25.14
2022-08-28T14:13:26.851Z,25.18
2022-08-28T14:15:55.459Z,25.42
2022-08-28T14:18:23.503Z,25.43
2022-08-28T14:20:50.139Z,25.23
2022-08-28T14:23:17.303Z,25.20
2022-08-28T14:25:45.858Z,25.06
2022-08-28T14:28:14.320Z,25.20
2022-08-28T14:30:42.698Z,25.39
2022-08-28T14:33:09.608Z,25.11
2022-08-28T14:35:40.869Z,24.97
2022-08-28T14:38:08.848Z,25.12
2022-08-28T14:40:40.518Z,25.22
2022-08-28T14:43:09.944Z,24.94
2022-08-28T14:45:48.378Z,25.18
2022-08-28T14:48:17.559Z,25.36
2022-08-28T14:50:46.343Z,25.53
2022-08-28T14:53:13.943Z,25.65
2022-08-28T14:55:46.048Z,25.60
2022-08-28T14:58:13.804Z,25.44
2022-08-28T15:00:42.865Z,25.53
2022-08-28T15:03:10.156Z,25.50
2022-08-28T15:05:36.822Z,25.44
2022-08-28T15:08:06.818Z,25.37
2022-08-28T15:10:34.284Z,25.27
2022-08-28T15:13:00.925Z,26.18
2022-08-28T15:15:27.563Z,25.90
2022-08-28T15:17:54.335Z,25.43
2022-08-28T15:20:21.971Z,25.73
2022-08-28T15:22:48.605Z,25.40
2022-08-28T15:25:15.318Z,25.47
2022-08-28T15:27:41.930Z,25.77
2022-08-28T15:30:09.024Z,25.89
2022-08-28T15:32:35.607Z,25.51
2022-08-28T15:35:02.210Z,25.42
2022-08-28T15:37:29.427Z,25.79
2022-08-28T15:40:17.192Z,25.60
2022-08-28T15:42:44.281Z,25.34
2022-08-28T15:45:12.178Z,25.48
2022-08-28T15:47:38.782Z,25.45
2022-08-28T15:50:06.302Z,25.33
2022-08-28T15:52:33.106Z,25.65
2022-08-28T15:54:59.716Z,25.51
2022-08-28T15:57:26.311Z,25.53
2022-08-28T15:59:52.903Z,25.56
2022-08-28T16:02:22.368Z,25.55
2022-08-28T16:04:49.388Z,25.45
2022-08-28T16:07:16.677Z,25.53
2022-08-28T16:09:43.311Z,25.48
2022-08-28T16:12:09.978Z,25.18
2022-08-28T16:14:36.624Z,25.33
2022-08-28T16:17:05.933Z,25.07
2022-08-28T16:19:37.661Z,25.12
2022-08-28T16:22:04.288Z,25.39
2022-08-28T16:24:30.935Z,25.10
2022-08-28T16:26:57.511Z,25.17
2022-08-28T16:29:24.128Z,25.42
2022-08-28T16:31:50.769Z,25.53
2022-08-28T16:34:19.602Z,25.57
2022-08-28T16:36:48.150Z,25.54
2022-08-28T16:39:14.991Z,25.22
2022-08-28T16:41:42.135Z,25.32
2022-08-28T16:44:09.088Z,25.31
2022-08-28T16:46:35.774Z,25.04
2022-08-28T16:49:03.074Z,25.01
2022-08-28T16:51:29.862Z,25.17
2022-08-28T16:53:57.029Z,25.15
2022-08-28T16:56:24.419Z,24.89
2022-08-28T16:58:52.995Z,24.94
2022-08-28T17:01:24.162Z,25.16
2022-08-28T17:03:54.532Z,24.90
2022-08-28T17:06:24.632Z,24.65
2022-08-28T17:08:56.388Z,24.82
2022-08-28T17:11:25.813Z,24.56
2022-08-28T17:13:53.579Z,24.35
2022-08-28T17:16:21.078Z,24.62
2022-08-28T17:18:52.013Z,24.96
2022-08-28T17:21:39.044Z,24.87
2022-08-28T17:24:06.828Z,24.76
2022-08-28T17:26:33.499Z,24.57
2022-08-28T17:29:00.163Z,24.84
2022-08-28T17:31:26.939Z,24.93
2022-08-28T17:33:53.625Z,24.81
2022-08-28T17:36:33.080Z,24.83
2022-08-28T17:39:08.030Z,24.62
2022-08-28T17:41:34.863Z,24.47
2022-08-28T17:44:02.700Z,24.82
2022-08-28T17:46:30.945Z,24.70
2022-08-28T17:49:01.258Z,24.58
2022-08-28T17:51:43.070Z,24.62
2022-08-28T17:54:15.237Z,24.60
2022-08-28T17:56:42.283Z,24.43
2022-08-28T17:59:10.101Z,24.46
2022-08-28T18:01:37.829Z,24.51
2022-08-28T18:04:05.294Z,24.71
2022-08-28T18:06:32.497Z,24.54
2022-08-28T18:08:59.438Z,24.40
2022-08-28T18:11:26.383Z,24.27
2022-08-28T18:13:53.034Z,24.55
2022-08-28T18:16:19.951Z,24.58
2022-08-28T18:18:46.618Z,24.42
2022-08-28T18:21:14.320Z,24.32
2022-08-28T18:23:41.005Z,24.42
2022-08-28T18:26:08.142Z,24.35
2022-08-28T18:28:35.000Z,24.15
2022-08-28T18:31:02.642Z,23.70
2022-08-28T18:33:29.829Z,23.91
2022-08-28T18:35:56.713Z,24.07
2022-08-28T18:38:27.758Z,24.04
2022-08-28T18:40:55.447Z,23.96
2022-08-28T18:43:22.614Z,24.40
2022-08-28T18:45:49.925Z,24.52
2022-08-28T18:48:16.815Z,24.51
2022-08-28T18:50:46.454Z,24.49
2022-08-28T18:53:17.499Z,24.45
2022-08-28T18:55:45.733Z,24.45
2022-08-28T18:58:15.429Z,24.46
2022-08-28T19:00:42.374Z,24.25
2022-08-28T19:03:09.253Z,24.05
2022-08-28T19:05:37.438Z,23.88
2022-08-28T19:08:04.587Z,23.62
2022-08-28T19:10:34.490Z,23.60
2022-08-28T19:13:01.945Z,23.49
2022-08-28T19:15:29.183Z,23.38
2022-08-28T19:17:56.069Z,23.46
2022-08-28T19:20:23.039Z,23.45
2022-08-28T19:22:49.720Z,23.54
2022-08-28T19:25:22.355Z,23.60
2022-08-28T19:27:56.254Z,23.70
2022-08-28T19:30:25.587Z,23.53
2022-08-28T19:32:52.228Z,23.74
2022-08-28T19:35:19.141Z,23.20
2022-08-28T19:37:46.091Z,22.94
2022-08-28T19:40:13.581Z,23.10
2022-08-28T19:42:40.242Z,23.47
2022-08-28T19:45:08.560Z,23.72
2022-08-28T19:47:35.551Z,23.32
2022-08-28T19:50:04.512Z,23.53
2022-08-28T19:52:31.149Z,23.72
2022-08-28T19:55:01.015Z,23.23
2022-08-28T19:57:27.606Z,23.01
2022-08-28T19:59:54.188Z,22.86
2022-08-28T20:02:22.778Z,22.82
2022-08-28T20:04:50.255Z,22.83
2022-08-28T20:07:16.958Z,22.50
2022-08-28T20:09:43.796Z,22.56
2022-08-28T20:12:10.471Z,22.88
2022-08-28T20:14:41.372Z,22.90
2022-08-28T20:17:08.161Z,22.98
2022-08-28T20:19:34.743Z,22.83
2022-08-28T20:22:01.319Z,22.75
2022-08-28T20:24:30.264Z,23.13
2022-08-28T20:27:02.919Z,23.09
2022-08-28T20:29:29.996Z,22.59
2022-08-28T20:31:56.760Z,22.74
2022-08-28T20:34:23.500Z,22.94
2022-08-28T20:36:50.249Z,22.95
2022-08-28T20:39:17.616Z,23.16
2022-08-28T20:41:45.975Z,22.66
2022-08-28T20:44:15.513Z,22.95
2022-08-28T20:46:42.927Z,22.71
2022-08-28T20:49:14.526Z,22.80
2022-08-28T20:51:58.839Z,22.85
2022-08-28T20:54:30.111Z,22.42
2022-08-28T20:56:59.687Z,22.68
2022-08-28T20:59:34.481Z,22.51
2022-08-28T21:02:12.718Z,22.52
2022-08-28T21:04:41.042Z,22.56
2022-08-28T21:07:08.094Z,22.79
2022-08-28T21:10:04.230Z,22.42
2022-08-28T21:12:22.383Z,22.21
2022-08-28T21:14:52.731Z,22.15
2022-08-28T21:17:28.958Z,22.26
2022-08-28T21:20:00.724Z,22.57
2022-08-28T21:22:28.956Z,22.70
2022-08-28T21:24:55.619Z,22.54
2022-08-28T21:27:22.350Z,22.55
2022-08-28T21:29:48.940Z,22.33
2022-08-28T21:32:16.696Z,22.47
2022-08-28T21:34:43.795Z,22.39
2022-08-28T21:37:10.359Z,22.21
2022-08-28T21:39:37.063Z,21.99
2022-08-28T21:42:03.772Z,22.48
2022-08-28T21:44:30.377Z,21.85
2022-08-28T21:46:58.820Z,21.73
2022-08-28T21:49:25.541Z,21.96
2022-08-28T21:51:52.159Z,22.43
2022-08-28T21:54:19.621Z,22.23
2022-08-28T21:56:46.422Z,21.89
2022-08-28T21:59:15.230Z,21.78
2022-08-28T22:01:42.026Z,21.39
2022-08-28T22:04:09.243Z,21.34
2022-08-28T22:06:36.035Z,21.54
2022-08-28T22:09:05.002Z,21.80
2022-08-28T22:11:32.798Z,21.99
2022-08-28T22:13:59.978Z,21.46
2022-08-28T22:16:27.958Z,21.21
2022-08-28T22:18:54.813Z,21.57
2022-08-28T22:21:43.117Z,21.55
2022-08-28T22:26:37.640Z,21.50
2022-08-28T22:29:04.281Z,21.62
2022-08-28T22:31:30.907Z,21.29
2022-08-28T22:33:57.952Z,21.16
2022-08-28T22:36:24.653Z,21.05
2022-08-28T22:38:56.376Z,21.21
2022-08-28T22:41:23.323Z,21.81
2022-08-28T22:43:51.630Z,21.55
2022-08-28T22:46:20.599Z,21.43
2022-08-28T22:48:48.003Z,21.51
2022-08-28T22:51:18.287Z,21.35
2022-08-28T22:53:45.045Z,21.34
2022-08-28T22:56:12.724Z,21.30
2022-08-28T22:58:39.719Z,20.96
2022-08-28T23:01:11.652Z,21.12
2022-08-28T23:03:39.645Z,21.08
2022-08-28T23:06:06.506Z,20.83
2022-08-28T23:08:34.128Z,20.83
2022-08-28T23:11:01.293Z,21.50
2022-08-28T23:13:29.710Z,21.61
2022-08-28T23:15:56.293Z,21.67
2022-08-28T23:18:22.894Z,21.38
2022-08-28T23:20:50.744Z,21.47
2022-08-28T23:23:19.190Z,21.26
2022-08-28T23:25:46.285Z,21.20
2022-08-28T23:28:13.083Z,21.51
2022-08-28T23:30:41.308Z,21.54
2022-08-28T23:33:21.623Z,21.49
2022-08-28T23:35:52.254Z,21.49
2022-08-28T23:38:19.343Z,21.51
2022-08-28T23:40:46.167Z,21.38
2022-08-28T23:43:12.776Z,21.44
2022-08-28T23:45:42.463Z,21.51
2022-08-28T23:48:09.353Z,21.59
2022-08-28T23:50:36.502Z,21.47
2022-08-28T23:53:04.656Z,21.36
2022-08-28T23:55:33.381Z,21.43
2022-08-28T23:58:00.383Z,21.04
